Time;durP1;ratioP1;P1;durP2;ratioP2;P2;SDS_P1;SDS_P2;PMS_P1;PMS_P2;Temp;Humidity;BMP_temperature;BMP_pressure;BME280_temperature;BME280_humidity;BME280_pressure;Samples;Min_cycle;Max_cycle;Signal;HPM_P1;HPM_P2
2022/01/22 00:02:07;;;;;;;25.90;3.63;;;6.40;99.90;;;;;;5044601;28;20405;-69
2022/01/22 00:04:33;;;;;;;27.70;3.35;;;6.40;99.90;;;;;;5008191;28;272230;-70
2022/01/22 00:07:02;;;;;;;26.20;3.70;;;6.40;99.90;;;;;;5045568;28;20330;-69
2022/01/22 00:09:38;;;;;;;33.33;3.60;;;6.50;99.90;;;;;;5015441;28;39726;-69
2022/01/22 00:12:07;;;;;;;24.48;3.00;;;6.50;99.90;;;;;;5026837;28;20072;-68
2022/01/22 00:14:36;;;;;;;29.95;3.60;;;6.40;99.90;;;;;;5022598;28;268953;-69
2022/01/22 00:17:03;;;;;;;27.98;3.50;;;6.50;99.90;;;;;;5042949;28;20038;-69
2022/01/22 00:19:29;;;;;;;21.65;3.13;;;6.40;99.90;;;;;;5021615;28;257517;-69
2022/01/22 00:21:56;;;;;;;32.33;3.90;;;6.50;99.90;;;;;;5023605;28;20089;-69
2022/01/22 00:24:22;;;;;;;32.92;3.70;;;6.40;99.90;;;;;;5024262;28;270589;-68
2022/01/22 00:26:48;;;;;;;22.77;3.35;;;6.50;99.90;;;;;;5026695;28;20052;-67
2022/01/22 00:29:16;;;;;;;28.67;4.40;;;6.40;99.90;;;;;;5010088;28;130294;-68
2022/01/22 00:31:42;;;;;;;28.58;4.05;;;6.50;99.90;;;;;;5025917;28;20056;-68
2022/01/22 00:34:08;;;;;;;28.20;3.92;;;6.50;99.90;;;;;;5014137;28;62899;-68
2022/01/22 00:36:36;;;;;;;30.17;3.80;;;6.50;99.90;;;;;;5026378;28;20081;-69
2022/01/22 00:39:03;;;;;;;40.47;4.22;;;6.50;99.90;;;;;;5004710;28;138508;-68
2022/01/22 00:43:58;;;;;;;34.80;4.03;;;6.50;99.90;;;;;;5081610;22;266328;-89
2022/01/22 00:46:27;;;;;;;28.23;4.10;;;6.50;99.90;;;;;;5061295;28;20060;-89
2022/01/22 00:48:59;;;;;;;26.63;3.97;;;6.50;99.90;;;;;;5046607;28;265697;-88
2022/01/22 00:51:26;;;;;;;28.38;4.47;;;6.50;99.90;;;;;;5064355;28;20040;-87
2022/01/22 00:53:54;;;;;;;30.13;4.88;;;6.50;99.90;;;;;;5030887;28;262569;-86
2022/01/22 00:56:20;;;;;;;24.35;4.40;;;6.50;99.90;;;;;;5053492;22;20055;-69
2022/01/22 00:58:46;;;;;;;29.27;4.40;;;6.50;99.90;;;;;;5028806;28;251668;-70
2022/01/22 01:01:13;;;;;;;26.55;4.22;;;6.50;99.90;;;;;;5067529;28;20055;-70
2022/01/22 01:03:39;;;;;;;36.40;4.30;;;6.50;99.90;;;;;;5044550;28;272702;-69
2022/01/22 01:06:06;;;;;;;29.42;4.53;;;6.50;99.90;;;;;;5018530;28;20044;-69
2022/01/22 01:08:34;;;;;;;24.70;4.95;;;6.50;99.90;;;;;;5090387;22;20045;-69
2022/01/22 01:11:01;;;;;;;28.80;4.38;;;6.50;99.90;;;;;;5023295;28;79834;-69
2022/01/22 01:13:31;;;;;;;27.95;4.13;;;6.50;99.90;;;;;;5039352;28;20064;-69
2022/01/22 01:16:16;;;;;;;31.35;4.32;;;6.50;99.90;;;;;;5020124;28;248414;-69
2022/01/22 01:32:56;;;;;;;27.88;4.43;;;6.60;99.90;;;;;;5038841;28;20050;-70
2022/01/22 01:35:18;;;;;;;24.92;3.42;;;6.60;99.90;;;;;;5027737;28;258369;-69
2022/01/22 01:37:44;;;;;;;30.33;3.60;;;6.60;99.90;;;;;;5037228;28;20059;-70
2022/01/22 01:40:13;;;;;;;27.63;3.63;;;6.60;99.90;;;;;;4999100;28;28698;-70
2022/01/22 01:42:48;;;;;;;34.08;4.35;;;6.60;99.90;;;;;;5017777;28;20061;-70
2022/01/22 01:45:21;;;;;;;28.92;4.40;;;6.60;99.90;;;;;;5003493;28;264990;-70
2022/01/22 01:47:58;;;;;;;25.40;3.80;;;6.60;99.90;;;;;;5025375;28;20529;-69
2022/01/22 01:50:25;;;;;;;26.08;3.40;;;6.60;99.90;;;;;;5006271;28;253831;-69
2022/01/22 01:53:06;;;;;;;23.02;3.67;;;6.60;99.90;;;;;;5027178;28;20069;-70
2022/01/22 01:55:46;;;;;;;24.48;3.70;;;6.60;99.90;;;;;;5007907;28;248501;-70
2022/01/22 01:58:13;;;;;;;20.88;3.28;;;6.60;99.90;;;;;;5027197;28;20053;-71
2022/01/22 02:00:39;;;;;;;26.48;3.85;;;6.60;99.90;;;;;;5005786;28;260953;-70
2022/01/22 02:03:08;;;;;;;27.58;3.25;;;6.60;99.90;;;;;;5022461;28;20046;-70
2022/01/22 02:05:36;;;;;;;21.70;3.22;;;6.60;99.90;;;;;;4993898;28;258765;-70
2022/01/22 02:08:02;;;;;;;25.08;3.35;;;6.60;99.90;;;;;;5026350;28;20714;-70
2022/01/22 02:10:29;;;;;;;23.77;3.45;;;6.50;99.90;;;;;;5007346;28;263796;-70
2022/01/22 02:23:44;;;;;;;12.48;2.50;;;6.60;99.90;;;;;;5006644;28;275626;-70
2022/01/22 02:26:12;;;;;;;;;;;6.50;99.90;;;;;;5011255;28;20045;-70
2022/01/22 02:28:38;;;;;;;19.67;3.03;;;6.60;99.90;;;;;;5013362;28;275514;-70
2022/01/22 02:31:42;;;;;;;20.48;2.78;;;6.60;99.90;;;;;;5029947;28;20061;-70
2022/01/22 02:34:23;;;;;;;14.02;2.58;;;6.50;99.90;;;;;;5002026;28;259849;-71
2022/01/22 02:39:32;;;;;;;18.15;2.58;;;6.50;99.90;;;;;;5006338;28;260370;-70
2022/01/22 02:41:58;;;;;;;19.67;2.40;;;6.50;99.90;;;;;;5027183;28;20053;-70
2022/01/22 02:44:36;;;;;;;17.52;1.98;;;6.50;99.90;;;;;;5001140;28;269792;-71
2022/01/22 02:47:05;;;;;;;15.65;2.38;;;6.50;99.90;;;;;;5023723;28;20418;-71
2022/01/22 02:49:32;;;;;;;11.50;2.13;;;6.50;99.90;;;;;;4991025;28;193709;-71
2022/01/22 02:52:03;;;;;;;15.75;2.42;;;6.60;99.90;;;;;;5028890;28;20049;-70
2022/01/22 02:54:30;;;;;;;15.05;2.22;;;6.60;99.90;;;;;;4987195;28;235774;-71
2022/01/22 02:56:57;;;;;;;12.95;2.17;;;6.60;99.90;;;;;;5026305;28;20045;-71
2022/01/22 02:59:23;;;;;;;22.83;2.85;;;6.50;99.90;;;;;;5010110;28;256209;-71
2022/01/22 03:01:50;;;;;;;16.15;2.58;;;6.50;99.90;;;;;;5026208;28;20042;-70
2022/01/22 03:04:17;;;;;;;14.55;2.60;;;6.50;99.90;;;;;;4991994;28;271640;-70
2022/01/22 03:06:44;;;;;;;16.00;2.20;;;6.60;99.90;;;;;;5020657;28;20510;-70
2022/01/22 03:09:12;;;;;;;21.50;2.20;;;6.50;99.90;;;;;;4999083;28;148601;-70
2022/01/22 03:11:57;;;;;;;20.50;2.50;;;6.50;99.90;;;;;;5009385;28;20503;-70
2022/01/22 03:22:27;;;;;;;21.17;3.45;;;6.50;99.90;;;;;;5023321;28;20049;-70
2022/01/22 03:27:37;;;;;;;15.57;2.70;;;6.50;99.90;;;;;;5023769;28;20060;-69
2022/01/22 03:30:05;;;;;;;15.70;2.50;;;6.50;99.90;;;;;;5005806;28;269108;-69
2022/01/22 03:32:38;;;;;;;17.90;2.70;;;6.50;99.90;;;;;;5023743;28;20057;-70
2022/01/22 03:35:13;;;;;;;15.60;2.20;;;6.50;99.90;;;;;;5006338;28;251444;-70
2022/01/22 03:37:41;;;;;;;12.48;2.85;;;6.50;99.90;;;;;;5023786;28;20062;-71
2022/01/22 03:40:13;;;;;;;16.73;2.63;;;6.50;99.90;;;;;;5007830;28;261187;-70
2022/01/22 03:42:41;;;;;;;14.48;2.55;;;6.50;99.90;;;;;;5027960;28;20057;-70
2022/01/22 03:45:10;;;;;;;14.73;2.30;;;6.60;99.90;;;;;;4990701;28;271999;-70
2022/01/22 03:47:37;;;;;;;15.05;2.47;;;6.50;99.90;;;;;;5023487;28;20056;-70
2022/01/22 03:50:04;;;;;;;15.55;2.50;;;6.50;99.90;;;;;;5006880;28;274913;-70
2022/01/22 03:52:30;;;;;;;11.85;2.50;;;6.50;99.90;;;;;;5020398;28;20057;-70
2022/01/22 03:54:57;;;;;;;13.43;2.30;;;6.50;99.90;;;;;;4988996;28;105361;-70
2022/01/22 03:57:24;;;;;;;14.10;2.70;;;6.50;99.90;;;;;;5026480;28;20053;-70
2022/01/22 03:59:53;;;;;;;17.80;2.53;;;6.50;99.90;;;;;;5005817;28;278518;-70
2022/01/22 04:05:05;;;;;;;15.60;2.70;;;6.50;99.90;;;;;;4990428;28;258487;-70
2022/01/22 04:10:04;;;;;;;15.00;2.50;;;6.50;99.90;;;;;;5003924;28;239890;-70
2022/01/22 04:12:48;;;;;;;16.83;2.72;;;6.50;99.90;;;;;;5025933;28;20050;-70
2022/01/22 04:15:18;;;;;;;14.65;2.60;;;6.50;99.90;;;;;;5006515;28;279126;-70
2022/01/22 04:25:46;;;;;;;12.98;1.90;;;6.50;99.90;;;;;;5010347;28;242521;-69
2022/01/22 04:28:12;;;;;;;20.20;2.95;;;6.40;99.90;;;;;;5029313;28;20045;-69
2022/01/22 04:30:39;;;;;;;13.63;1.85;;;6.40;99.90;;;;;;5008272;28;274378;-69
2022/01/22 04:33:05;;;;;;;11.10;1.70;;;6.50;99.90;;;;;;5029563;28;20049;-70
2022/01/22 04:35:32;;;;;;;15.55;2.10;;;6.40;99.90;;;;;;5009987;28;266378;-70
2022/01/22 04:37:59;;;;;;;12.65;2.05;;;6.40;99.90;;;;;;5029309;28;20069;-70
2022/01/22 04:40:25;;;;;;;16.55;1.80;;;6.40;99.90;;;;;;5010683;28;251133;-69
2022/01/22 04:42:52;;;;;;;16.77;2.05;;;6.40;99.90;;;;;;5031084;28;20505;-69
2022/01/22 04:45:38;;;;;;;11.68;2.03;;;6.40;99.90;;;;;;5010309;28;269563;-70
2022/01/22 04:55:48;;;;;;;12.50;2.05;;;6.40;99.90;;;;;;5008665;28;263498;-70
2022/01/22 04:58:14;;;;;;;12.70;2.05;;;6.40;99.90;;;;;;5028223;28;20434;-70
2022/01/22 05:00:43;;;;;;;19.10;2.60;;;6.50;99.90;;;;;;4998977;28;92989;-70
2022/01/22 05:03:10;;;;;;;13.35;2.13;;;6.40;99.90;;;;;;5028435;28;20061;-70
2022/01/22 05:05:36;;;;;;;17.52;2.30;;;6.50;99.90;;;;;;4993634;28;260977;-70
2022/01/22 05:08:03;;;;;;;17.73;2.50;;;6.40;99.90;;;;;;5027002;28;20454;-70
2022/01/22 05:10:29;;;;;;;22.65;2.78;;;6.50;99.90;;;;;;5005079;28;254020;-70
2022/01/22 05:12:55;;;;;;;12.30;2.03;;;6.40;99.90;;;;;;5026710;28;20636;-70
2022/01/22 05:15:22;;;;;;;12.13;2.08;;;6.40;99.90;;;;;;5008852;28;270083;-70
2022/01/22 05:17:48;;;;;;;13.27;2.25;;;6.40;99.90;;;;;;5028556;28;20450;-70
2022/01/22 05:20:30;;;;;;;17.75;2.45;;;6.40;99.90;;;;;;5008400;28;261976;-70
2022/01/22 05:23:12;;;;;;;18.08;2.70;;;6.40;99.90;;;;;;5026663;28;20054;-70
2022/01/22 05:25:51;;;;;;;18.40;2.65;;;6.40;99.90;;;;;;5009801;28;260607;-70
2022/01/22 05:29:02;;;;;;;19.83;2.88;;;6.40;99.90;;;;;;5026876;28;20045;-70
2022/01/22 05:39:21;;;;;;;13.20;2.08;;;6.40;99.90;;;;;;5007340;28;268831;-71
2022/01/22 05:41:48;;;;;;;17.83;2.25;;;6.40;99.90;;;;;;5026088;28;20052;-71
2022/01/22 05:44:14;;;;;;;14.93;2.20;;;6.40;99.90;;;;;;4996818;28;103667;-70
2022/01/22 05:46:40;;;;;;;19.65;2.50;;;6.40;99.90;;;;;;5026995;28;20045;-70
2022/01/22 05:49:06;;;;;;;16.40;2.38;;;6.40;99.90;;;;;;5010138;28;251260;-70
2022/01/22 05:51:34;;;;;;;14.30;2.17;;;6.40;99.90;;;;;;5033419;28;20048;-70
2022/01/22 05:54:28;;;;;;;13.65;2.00;;;6.40;99.90;;;;;;5004135;28;271859;-70
2022/01/22 05:59:40;;;;;;;18.08;2.55;;;6.40;99.90;;;;;;5011180;28;265042;-69
2022/01/22 06:02:08;;;;;;;17.63;2.13;;;6.40;99.90;;;;;;5027552;28;20509;-70
2022/01/22 06:04:35;;;;;;;12.48;2.40;;;6.40;99.90;;;;;;4992165;28;270870;-70
2022/01/22 06:07:02;;;;;;;22.55;2.70;;;6.30;99.90;;;;;;5024631;28;20498;-70
2022/01/22 06:09:31;;;;;;;18.52;2.30;;;6.40;99.90;;;;;;5009573;28;256009;-71
2022/01/22 06:14:32;;;;;;;12.75;2.42;;;6.40;99.90;;;;;;4987251;28;200757;-70
2022/01/22 06:16:58;;;;;;;14.23;2.50;;;6.40;99.90;;;;;;5002039;28;20110;-70
2022/01/22 06:19:25;;;;;;;13.38;2.38;;;6.40;99.90;;;;;;5006450;28;269667;-70
2022/01/22 06:21:52;;;;;;;13.32;2.40;;;6.30;99.90;;;;;;5025892;28;20167;-70
2022/01/22 06:24:19;;;;;;;11.02;1.95;;;6.40;99.90;;;;;;5012962;28;264869;-69
2022/01/22 06:26:45;;;;;;;17.20;3.00;;;6.40;99.90;;;;;;5027377;28;20037;-70
2022/01/22 06:29:12;;;;;;;10.85;2.30;;;6.40;99.90;;;;;;5007372;28;252524;-69
2022/01/22 06:31:39;;;;;;;14.43;2.70;;;6.40;99.90;;;;;;5007139;28;20054;-70
2022/01/22 06:34:05;;;;;;;17.52;2.40;;;6.40;99.90;;;;;;5009525;28;256254;-69
2022/01/22 06:36:32;;;;;;;17.83;2.72;;;6.40;99.90;;;;;;5007094;28;20045;-70
2022/01/22 06:39:11;;;;;;;15.48;2.67;;;6.40;99.90;;;;;;5012373;28;272413;-70
2022/01/22 06:41:44;;;;;;;14.35;2.72;;;6.40;99.90;;;;;;5020585;28;20762;-70
2022/01/22 06:44:25;;;;;;;11.05;2.47;;;6.40;99.90;;;;;;5007670;28;255799;-70
2022/01/22 06:46:54;;;;;;;12.18;2.33;;;6.40;99.90;;;;;;5022908;28;20052;-70
2022/01/22 06:49:20;;;;;;;16.67;2.55;;;6.40;99.90;;;;;;5009603;28;263346;-69
2022/01/22 06:51:47;;;;;;;11.30;2.25;;;6.40;99.90;;;;;;5025510;28;20041;-70
2022/01/22 06:54:14;;;;;;;15.13;2.85;;;6.40;99.90;;;;;;5009219;28;267366;-70
2022/01/22 06:56:41;;;;;;;13.85;2.70;;;6.40;99.90;;;;;;5004107;28;20800;-70
2022/01/22 06:59:11;;;;;;;15.50;2.40;;;6.40;99.90;;;;;;4999840;28;271636;-70
2022/01/22 07:01:38;;;;;;;13.30;2.20;;;6.40;99.90;;;;;;5012344;28;20044;-70
2022/01/22 07:04:04;;;;;;;12.50;2.42;;;6.40;99.90;;;;;;4987924;28;257990;-70
2022/01/22 07:06:30;;;;;;;10.70;2.50;;;6.40;99.90;;;;;;5010427;28;20050;-71
2022/01/22 07:08:56;;;;;;;13.57;2.70;;;6.40;99.90;;;;;;5004696;28;265582;-70
2022/01/22 07:11:22;;;;;;;13.38;2.50;;;6.40;99.90;;;;;;5074109;22;20067;-69
2022/01/22 07:13:49;;;;;;;9.93;1.98;;;6.40;99.90;;;;;;5041306;28;263245;-69
2022/01/22 07:16:15;;;;;;;13.93;2.60;;;6.40;99.90;;;;;;5063291;28;20063;-72
2022/01/22 07:18:42;;;;;;;11.00;2.42;;;6.40;99.90;;;;;;5064533;28;265369;-69
2022/01/22 07:21:18;;;;;;;16.13;2.47;;;6.30;99.90;;;;;;5054959;28;20047;-68
2022/01/22 07:26:14;;;;;;;10.82;2.40;;;6.30;99.90;;;;;;5077614;28;20417;-70
2022/01/22 07:28:40;;;;;;;14.27;2.75;;;6.30;99.90;;;;;;5062835;28;265839;-69
2022/01/22 07:31:07;;;;;;;13.45;2.47;;;6.30;99.90;;;;;;5075767;28;20045;-69
2022/01/22 07:33:36;;;;;;;11.18;2.50;;;6.20;99.90;;;;;;5079405;28;20063;-70
2022/01/22 07:36:04;;;;;;;19.27;2.70;;;6.20;99.90;;;;;;5038815;28;20193;-70
2022/01/22 07:38:30;;;;;;;11.35;2.47;;;6.20;99.90;;;;;;5085812;28;20063;-69
2022/01/22 07:40:56;;;;;;;14.77;2.40;;;6.20;99.90;;;;;;5053885;28;257539;-69
2022/01/22 07:43:22;;;;;;;14.27;2.70;;;6.20;99.90;;;;;;5061659;28;20141;-69
2022/01/22 07:45:49;;;;;;;13.45;2.08;;;6.20;99.90;;;;;;5058414;28;269684;-69
2022/01/22 07:48:15;;;;;;;10.68;2.03;;;6.20;99.90;;;;;;5085576;28;20059;-70
2022/01/22 07:50:41;;;;;;;10.63;2.50;;;6.10;99.90;;;;;;5052015;28;54429;-69
2022/01/22 07:53:07;;;;;;;10.32;1.90;;;6.10;99.90;;;;;;5083372;28;20049;-69
2022/01/22 07:55:33;;;;;;;11.60;2.28;;;6.00;99.90;;;;;;5049676;28;251459;-70
2022/01/22 07:57:59;;;;;;;11.65;2.17;;;6.10;99.90;;;;;;5067580;28;20052;-69
2022/01/22 08:00:25;;;;;;;9.60;2.22;;;6.00;99.90;;;;;;5055738;28;130251;-69
2022/01/22 08:02:51;;;;;;;11.52;2.40;;;6.00;99.90;;;;;;5086839;28;20063;-69
2022/01/22 08:05:18;;;;;;;10.02;2.28;;;6.00;99.90;;;;;;5047860;28;246409;-70
2022/01/22 08:07:44;;;;;;;14.38;2.78;;;6.00;99.90;;;;;;5085182;28;20632;-69
2022/01/22 08:10:12;;;;;;;9.93;2.20;;;6.00;99.90;;;;;;5037690;28;95315;-70
2022/01/22 08:12:39;;;;;;;8.98;2.50;;;6.00;99.90;;;;;;5068271;28;20120;-70
2022/01/22 08:15:08;;;;;;;11.65;2.20;;;6.00;99.90;;;;;;5070882;28;82915;-70
2022/01/22 08:17:34;;;;;;;8.70;2.10;;;6.00;99.90;;;;;;5086038;28;20040;-69
2022/01/22 08:20:00;;;;;;;11.48;1.90;;;6.00;99.90;;;;;;5054001;28;132135;-68
2022/01/22 08:22:26;;;;;;;11.35;2.00;;;6.00;99.90;;;;;;5088634;28;20047;-69
2022/01/22 08:24:54;;;;;;;13.52;2.30;;;6.00;99.90;;;;;;5049927;28;192116;-70
2022/01/22 08:29:54;;;;;;;8.95;1.95;;;6.00;99.90;;;;;;5052140;28;125386;-69
2022/01/22 08:37:49;;;;;;;11.18;1.80;;;6.00;99.90;;;;;;5084034;28;20047;-69
2022/01/22 08:40:15;;;;;;;10.75;2.00;;;6.10;99.90;;;;;;5068535;28;254929;-69
2022/01/22 08:42:42;;;;;;;12.43;1.90;;;6.10;99.90;;;;;;5068790;28;20047;-69
2022/01/22 08:45:08;;;;;;;11.30;1.90;;;6.10;99.90;;;;;;5057060;28;20067;-69
2022/01/22 08:47:35;;;;;;;12.98;2.00;;;6.10;99.90;;;;;;5088986;28;20416;-69
2022/01/22 08:50:01;;;;;;;13.55;1.77;;;6.10;99.90;;;;;;5064755;28;273387;-69
2022/01/22 08:52:31;;;;;;;10.57;2.05;;;6.10;99.90;;;;;;5078257;28;20501;-69
2022/01/22 08:54:57;;;;;;;10.00;1.80;;;6.10;99.90;;;;;;5054085;28;139899;-67
2022/01/22 08:57:23;;;;;;;16.40;1.85;;;6.10;99.90;;;;;;5085417;28;20056;-67
2022/01/22 08:59:50;;;;;;;15.68;1.92;;;6.20;99.90;;;;;;5053457;28;267222;-69
2022/01/22 09:02:16;;;;;;;15.48;2.10;;;6.20;99.90;;;;;;5074123;28;20047;-69
2022/01/22 09:04:42;;;;;;;17.23;2.10;;;6.10;99.90;;;;;;5033058;28;213965;-69
2022/01/22 09:07:08;;;;;;;17.00;1.90;;;6.20;99.90;;;;;;5069345;28;20086;-69
2022/01/22 09:09:36;;;;;;;15.90;2.00;;;6.20;99.90;;;;;;5046264;28;20517;-68
2022/01/22 09:12:05;;;;;;;17.17;2.35;;;6.20;99.90;;;;;;5057941;28;20044;-69
2022/01/22 09:14:32;;;;;;;12.15;2.17;;;6.20;99.90;;;;;;5048775;28;223190;-69
2022/01/22 09:16:59;;;;;;;14.88;2.10;;;6.20;99.90;;;;;;5066990;28;20055;-69
2022/01/22 09:19:33;;;;;;;13.18;2.83;;;6.20;99.90;;;;;;5063187;28;273491;-69
2022/01/22 09:22:01;;;;;;;21.20;3.20;;;6.20;99.90;;;;;;5079838;28;20059;-69
2022/01/22 09:24:27;;;;;;;20.00;3.60;;;6.30;99.90;;;;;;5053335;28;62174;-69
2022/01/22 09:26:56;;;;;;;21.00;4.15;;;6.30;99.90;;;;;;5062825;28;20048;-70
2022/01/22 09:29:23;;;;;;;22.38;3.92;;;6.30;99.90;;;;;;5034989;28;119921;-69
2022/01/22 09:31:50;;;;;;;19.27;3.97;;;6.30;99.90;;;;;;5067544;28;20052;-69
2022/01/22 09:34:16;;;;;;;22.33;3.78;;;6.30;99.90;;;;;;5054981;28;127433;-70
2022/01/22 09:36:42;;;;;;;16.10;3.45;;;6.30;99.90;;;;;;5066474;28;20056;-69
2022/01/22 09:39:09;;;;;;;20.90;3.65;;;6.30;99.90;;;;;;5058870;28;280290;-70
2022/01/22 09:41:36;;;;;;;18.92;4.22;;;6.40;99.90;;;;;;5056623;28;20059;-68
2022/01/22 09:44:02;;;;;;;19.77;3.38;;;6.40;99.90;;;;;;5052725;28;194018;-69
2022/01/22 09:46:29;;;;;;;21.60;3.78;;;6.40;99.90;;;;;;5059059;28;20064;-70
2022/01/22 09:48:56;;;;;;;22.95;3.65;;;6.40;99.90;;;;;;5048577;28;258921;-68
2022/01/22 09:51:23;;;;;;;22.77;3.40;;;6.50;99.90;;;;;;5084445;28;20408;-70
2022/01/22 09:53:49;;;;;;;23.40;3.75;;;6.50;99.90;;;;;;5048439;28;241555;-69
2022/01/22 09:56:21;;;;;;;17.27;3.40;;;6.40;99.90;;;;;;5059636;28;20060;-69
2022/01/22 09:58:48;;;;;;;18.83;3.43;;;6.50;99.90;;;;;;5043793;28;259119;-68
2022/01/22 10:01:19;;;;;;;18.98;3.78;;;6.50;99.90;;;;;;5082412;28;20195;-70
2022/01/22 10:03:45;;;;;;;18.73;3.50;;;6.50;99.90;;;;;;5008831;28;253382;-69
2022/01/22 10:06:16;;;;;;;23.35;4.00;;;6.50;99.90;;;;;;5052222;28;20044;-69
2022/01/22 10:08:42;;;;;;;22.85;3.15;;;6.50;99.90;;;;;;5061929;28;275272;-69
2022/01/22 10:11:20;;;;;;;22.85;3.80;;;6.60;99.90;;;;;;5067005;28;20052;-70
2022/01/22 10:13:52;;;;;;;20.17;3.80;;;6.50;99.90;;;;;;5063258;28;253216;-69
2022/01/22 10:16:21;;;;;;;19.40;3.85;;;6.50;99.90;;;;;;5082285;28;20052;-70
2022/01/22 10:19:13;;;;;;;21.45;3.67;;;6.50;99.90;;;;;;5062480;28;250531;-69
2022/01/22 10:21:46;;;;;;;18.65;3.83;;;6.60;99.90;;;;;;5082706;28;20047;-69
2022/01/22 10:24:47;;;;;;;21.02;3.53;;;6.60;99.90;;;;;;5061744;28;271046;-68
2022/01/22 10:27:39;;;;;;;17.57;3.53;;;6.60;99.90;;;;;;5006110;28;20422;-67
2022/01/22 10:30:01;;;;;;;22.38;3.72;;;6.60;99.90;;;;;;5003058;28;194231;-68
2022/01/22 10:35:20;;;;;;;25.50;3.63;;;6.60;99.90;;;;;;5000636;28;234320;-68
2022/01/22 10:37:53;;;;;;;17.98;4.43;;;6.60;99.90;;;;;;5016790;28;20426;-68
2022/01/22 10:40:23;;;;;;;18.92;4.05;;;6.60;99.90;;;;;;5005622;28;130497;-68
2022/01/22 10:42:50;;;;;;;18.88;3.50;;;6.70;99.90;;;;;;5016554;28;20502;-69
2022/01/22 10:45:26;;;;;;;21.90;3.83;;;6.70;99.90;;;;;;4990186;28;157667;-68
2022/01/22 10:48:16;;;;;;;19.00;3.70;;;6.70;99.90;;;;;;5019005;28;20544;-69
2022/01/22 10:50:43;;;;;;;15.07;3.40;;;6.70;99.90;;;;;;5004377;28;79158;-69
2022/01/22 10:53:09;;;;;;;20.88;4.13;;;6.80;99.90;;;;;;5019010;28;20454;-69
2022/01/22 10:56:00;;;;;;;20.10;3.63;;;6.80;99.90;;;;;;4970051;28;238346;-68
2022/01/22 10:58:27;;;;;;;22.25;3.60;;;6.80;99.90;;;;;;5016884;28;20041;-69
2022/01/22 11:01:05;;;;;;;19.33;3.33;;;6.80;99.90;;;;;;5001377;28;71927;-69
2022/01/22 11:03:32;;;;;;;20.80;3.58;;;6.80;99.90;;;;;;5047899;28;20059;-69
2022/01/22 11:06:04;;;;;;;17.70;3.75;;;6.80;99.90;;;;;;5048305;28;265231;-69
2022/01/22 11:08:30;;;;;;;18.73;3.50;;;6.80;99.90;;;;;;5081976;28;20063;-68
2022/01/22 11:10:56;;;;;;;20.77;3.47;;;6.80;99.90;;;;;;5054680;28;251778;-69
2022/01/22 11:13:22;;;;;;;24.45;3.95;;;6.80;99.90;;;;;;5084784;28;20491;-69
2022/01/22 11:15:50;;;;;;;19.17;3.38;;;6.80;99.90;;;;;;5058743;28;272706;-68
2022/01/22 11:18:18;;;;;;;24.70;3.90;;;6.80;99.90;;;;;;5082573;28;20067;-69
2022/01/22 11:20:46;;;;;;;27.98;4.43;;;6.90;99.90;;;;;;5035852;28;55180;-69
2022/01/22 11:23:14;;;;;;;19.55;4.45;;;6.80;99.90;;;;;;5083658;28;20496;-69
2022/01/22 11:25:41;;;;;;;18.65;3.88;;;6.90;99.90;;;;;;5054855;28;255208;-69
2022/01/22 11:28:07;;;;;;;17.70;3.58;;;6.90;99.90;;;;;;5045310;28;20078;-69
2022/01/22 11:30:35;;;;;;;21.13;3.80;;;6.90;99.90;;;;;;5061072;28;257074;-68
2022/01/22 11:33:08;;;;;;;19.08;4.18;;;6.90;99.90;;;;;;5064034;28;20048;-69
2022/01/22 11:35:52;;;;;;;22.17;3.80;;;6.90;99.90;;;;;;5044319;28;245947;-68
2022/01/22 11:38:27;;;;;;;19.27;3.63;;;7.00;99.90;;;;;;5061692;28;20879;-69
2022/01/22 11:41:13;;;;;;;23.33;3.58;;;7.00;99.90;;;;;;5049698;28;157317;-68
2022/01/22 11:44:19;;;;;;;21.02;3.70;;;7.00;99.90;;;;;;5025555;28;270461;-68
2022/01/22 11:46:58;;;;;;;15.77;3.90;;;7.00;99.90;;;;;;5077356;28;20079;-68
2022/01/22 11:49:30;;;;;;;17.75;3.60;;;7.00;99.90;;;;;;5044414;28;146136;-69
2022/01/22 11:52:08;;;;;;;18.27;3.53;;;6.90;99.90;;;;;;5054481;28;20047;-68
2022/01/22 11:54:53;;;;;;;20.35;3.80;;;6.90;99.90;;;;;;5043450;28;274528;-69
2022/01/22 11:57:21;;;;;;;19.95;4.10;;;7.00;99.90;;;;;;5061247;28;20505;-68
2022/01/22 11:59:49;;;;;;;20.23;3.90;;;6.90;99.90;;;;;;5061384;28;257325;-69
2022/01/22 12:02:16;;;;;;;20.10;4.28;;;6.90;99.90;;;;;;5080827;28;20048;-68
2022/01/22 12:04:42;;;;;;;22.08;4.18;;;6.90;99.90;;;;;;5042541;28;242184;-68
2022/01/22 12:07:08;;;;;;;23.52;4.38;;;6.90;99.90;;;;;;5078788;28;20508;-69
2022/01/22 12:09:43;;;;;;;24.92;5.40;;;7.00;99.90;;;;;;5060315;28;252463;-69
2022/01/22 12:15:12;;;;;;;23.52;5.28;;;7.00;99.90;;;;;;5047991;28;253967;-70
2022/01/22 12:18:06;;;;;;;25.00;5.10;;;6.90;99.90;;;;;;5074193;28;20052;-70
2022/01/22 12:22:59;;;;;;;18.48;5.03;;;6.90;99.90;;;;;;5083817;28;20122;-69
2022/01/22 12:25:31;;;;;;;25.17;5.72;;;6.80;99.90;;;;;;5045503;28;251720;-68
2022/01/22 12:27:58;;;;;;;20.48;5.25;;;6.80;99.90;;;;;;5077536;28;20048;-69
2022/01/22 12:30:42;;;;;;;25.13;5.72;;;6.90;99.90;;;;;;5060384;28;268404;-69
2022/01/22 12:33:30;;;;;;;25.42;5.90;;;6.90;99.90;;;;;;5080595;28;20626;-69
2022/01/22 12:35:58;;;;;;;27.65;6.15;;;6.90;99.90;;;;;;5034961;28;129088;-68
2022/01/22 12:38:36;;;;;;;20.13;5.22;;;6.90;99.90;;;;;;5084492;28;20417;-68
2022/01/22 12:44:13;;;;;;;28.13;5.80;;;6.90;99.90;;;;;;5066303;28;250415;-69
2022/01/22 12:46:40;;;;;;;25.70;5.80;;;6.80;99.90;;;;;;5067010;28;20052;-69
2022/01/22 12:49:08;;;;;;;21.52;5.43;;;6.90;99.90;;;;;;5066253;28;256613;-69
2022/01/22 12:51:35;;;;;;;23.35;5.40;;;6.90;99.90;;;;;;5079308;28;20307;-70
2022/01/22 12:54:02;;;;;;;28.88;6.22;;;7.00;99.90;;;;;;5049525;28;240501;-70
2022/01/22 12:59:08;;;;;;;22.58;4.57;;;7.00;99.90;;;;;;5061452;28;250303;-69
2022/01/22 13:01:37;;;;;;;19.00;4.15;;;7.00;99.90;;;;;;5082988;28;20048;-69
2022/01/22 13:04:07;;;;;;;17.45;4.70;;;7.00;99.90;;;;;;5036004;28;222594;-69
2022/01/22 13:06:53;;;;;;;15.73;4.10;;;7.00;99.90;;;;;;5084583;28;20063;-69
2022/01/22 13:09:19;;;;;;;18.08;4.88;;;7.00;99.90;;;;;;5052091;28;89133;-69
2022/01/22 13:11:50;;;;;;;18.33;3.95;;;7.00;99.90;;;;;;5096207;22;20518;-70
2022/01/22 13:14:28;;;;;;;22.10;4.25;;;6.90;99.90;;;;;;5050279;28;253043;-71
2022/01/22 13:16:56;;;;;;;17.80;4.00;;;6.90;99.90;;;;;;5075104;28;20050;-70
2022/01/22 13:19:23;;;;;;;16.83;3.40;;;6.90;99.90;;;;;;5025550;28;51253;-70
2022/01/22 13:21:59;;;;;;;21.30;4.20;;;6.90;99.90;;;;;;5063247;28;20052;-71
2022/01/22 13:24:28;;;;;;;23.13;3.30;;;6.90;99.90;;;;;;5033687;28;204738;-70
2022/01/22 13:27:08;;;;;;;19.48;3.10;;;6.80;99.90;;;;;;5060215;28;20393;-71
2022/01/22 13:29:41;;;;;;;15.35;3.47;;;6.80;99.90;;;;;;5037035;28;272665;-71
2022/01/22 13:32:45;;;;;;;17.23;2.95;;;6.80;99.90;;;;;;5057749;28;20056;-71
2022/01/22 13:49:05;;;;;;;23.35;2.92;;;6.90;99.90;;;;;;5045479;28;266591;-70
2022/01/22 13:51:31;;;;;;;;;;;6.90;99.90;;;;;;5047036;28;20057;-71
2022/01/22 13:54:00;;;;;;;13.93;3.03;;;6.80;99.90;;;;;;5048760;28;413941;-70
2022/01/22 13:56:47;;;;;;;14.07;2.75;;;6.70;99.90;;;;;;5089744;28;20048;-70
2022/01/22 13:59:30;;;;;;;17.27;2.60;;;6.80;99.90;;;;;;5054401;28;250827;-70
2022/01/22 14:05:01;;;;;;;12.60;2.30;;;6.70;99.90;;;;;;5028224;28;260944;-71
2022/01/22 14:07:57;;;;;;;16.25;2.40;;;6.70;99.90;;;;;;5049939;28;20521;-70
2022/01/22 14:10:25;;;;;;;11.85;2.00;;;6.70;99.90;;;;;;5045461;28;156700;-70
2022/01/22 14:12:54;;;;;;;13.68;1.60;;;6.60;99.90;;;;;;5045545;28;20052;-70
2022/01/22 14:15:27;;;;;;;12.93;1.95;;;6.60;99.90;;;;;;5061710;28;258279;-69
2022/01/22 14:21:13;;;;;;;12.93;1.67;;;6.60;99.90;;;;;;5049310;28;109598;-70
2022/01/22 14:23:40;;;;;;;15.40;1.88;;;6.60;99.90;;;;;;4978682;28;83076;-70
2022/01/22 14:26:16;;;;;;;11.35;1.70;;;6.60;99.90;;;;;;4970733;28;20065;-70
2022/01/22 14:28:56;;;;;;;12.32;1.75;;;6.60;99.90;;;;;;4971245;28;176475;-70
2022/01/22 14:31:31;;;;;;;12.15;2.17;;;6.60;99.90;;;;;;5017117;28;20049;-70
2022/01/22 14:34:13;;;;;;;17.33;2.80;;;6.60;99.90;;;;;;4999504;28;158161;-70
2022/01/22 14:36:44;;;;;;;15.35;2.33;;;6.60;99.90;;;;;;5009250;28;20072;-70
2022/01/22 14:39:31;;;;;;;14.77;2.13;;;6.60;99.90;;;;;;4973979;28;180817;-70
2022/01/22 14:44:54;;;;;;;10.75;1.75;;;6.60;99.90;;;;;;4971573;28;129243;-70
2022/01/22 14:47:26;;;;;;;12.07;2.00;;;6.60;99.90;;;;;;4986396;28;20419;-71
2022/01/22 14:49:55;;;;;;;12.35;2.10;;;6.60;99.90;;;;;;4991124;28;61131;-71
2022/01/22 14:52:25;;;;;;;14.93;2.15;;;6.60;99.90;;;;;;4988604;28;20064;-71
2022/01/22 14:54:52;;;;;;;11.27;1.90;;;6.60;99.90;;;;;;4962956;28;158549;-71
2022/01/22 14:57:26;;;;;;;15.18;2.10;;;6.60;99.90;;;;;;4984450;28;20053;-71
2022/01/22 14:59:53;;;;;;;13.70;2.08;;;6.60;99.90;;;;;;4991360;28;22027;-70
2022/01/22 15:02:20;;;;;;;12.68;1.90;;;6.60;99.90;;;;;;5043284;28;20056;-70